sensor_id;sensor_type;location;lat;lon;timestamp;P1;durP1;ratioP1;P2;durP2;ratioP2
42420;SDS011;28063;48.140;11.588;2022-09-27T00:00:43;1.05;;;1.00;;
42420;SDS011;28063;48.140;11.588;2022-09-27T00:03:09;1.80;;;0.93;;
42420;SDS011;28063;48.140;11.588;2022-09-27T00:05:36;1.23;;;0.88;;
42420;SDS011;28063;48.140;11.588;2022-09-27T00:08:01;0.52;;;0.52;;
42420;SDS011;28063;48.140;11.588;2022-09-27T00:10:27;1.00;;;0.90;;
42420;SDS011;28063;48.140;11.588;2022-09-27T00:12:53;1.17;;;1.08;;
42420;SDS011;28063;48.140;11.588;2022-09-27T00:15:19;2.30;;;1.10;;
42420;SDS011;28063;48.140;11.588;2022-09-27T00:17:46;0.88;;;0.88;;
42420;SDS011;28063;48.140;11.588;2022-09-27T00:20:15;1.27;;;1.00;;
42420;SDS011;28063;48.140;11.588;2022-09-27T00:22:42;1.13;;;1.02;;
42420;SDS011;28063;48.140;11.588;2022-09-27T00:25:07;2.20;;;1.00;;
42420;SDS011;28063;48.140;11.588;2022-09-27T00:27:33;0.80;;;0.80;;
42420;SDS011;28063;48.140;11.588;2022-09-27T00:29:59;0.90;;;0.90;;
42420;SDS011;28063;48.140;11.588;2022-09-27T00:32:25;1.35;;;0.95;;
42420;SDS011;28063;48.140;11.588;2022-09-27T00:34:51;1.35;;;1.00;;
42420;SDS011;28063;48.140;11.588;2022-09-27T00:37:16;1.13;;;0.98;;
42420;SDS011;28063;48.140;11.588;2022-09-27T00:39:42;1.48;;;1.38;;
42420;SDS011;28063;48.140;11.588;2022-09-27T00:42:09;1.20;;;1.10;;
42420;SDS011;28063;48.140;11.588;2022-09-27T00:53:15;1.00;;;1.00;;
42420;SDS011;28063;48.140;11.588;2022-09-27T00:55:50;0.82;;;0.80;;
42420;SDS011;28063;48.140;11.588;2022-09-27T00:58:20;1.00;;;1.00;;
42420;SDS011;28063;48.140;11.588;2022-09-27T01:00:53;1.52;;;1.05;;
42420;SDS011;28063;48.140;11.588;2022-09-27T01:06:21;0.98;;;0.73;;
42420;SDS011;28063;48.140;11.588;2022-09-27T01:08:47;3.05;;;1.00;;
42420;SDS011;28063;48.140;11.588;2022-09-27T01:11:34;1.13;;;0.98;;
42420;SDS011;28063;48.140;11.588;2022-09-27T01:14:23;0.80;;;0.80;;
42420;SDS011;28063;48.140;11.588;2022-09-27T01:17:01;1.00;;;1.00;;
42420;SDS011;28063;48.140;11.588;2022-09-27T01:22:28;0.68;;;0.68;;
42420;SDS011;28063;48.140;11.588;2022-09-27T01:27:48;1.30;;;0.77;;
42420;SDS011;28063;48.140;11.588;2022-09-27T01:44:00;1.00;;;0.88;;
42420;SDS011;28063;48.140;11.588;2022-09-27T01:46:35;1.65;;;1.17;;
42420;SDS011;28063;48.140;11.588;2022-09-27T01:49:16;1.40;;;1.30;;
42420;SDS011;28063;48.140;11.588;2022-09-27T01:51:49;2.47;;;1.40;;
42420;SDS011;28063;48.140;11.588;2022-09-27T01:54:21;1.50;;;1.40;;
42420;SDS011;28063;48.140;11.588;2022-09-27T01:56:52;2.88;;;1.85;;
42420;SDS011;28063;48.140;11.588;2022-09-27T02:01:52;1.65;;;1.50;;
42420;SDS011;28063;48.140;11.588;2022-09-27T02:04:24;2.13;;;1.70;;
42420;SDS011;28063;48.140;11.588;2022-09-27T02:06:55;2.60;;;1.80;;
42420;SDS011;28063;48.140;11.588;2022-09-27T02:09:30;1.80;;;1.70;;
42420;SDS011;28063;48.140;11.588;2022-09-27T02:12:25;2.40;;;1.48;;
42420;SDS011;28063;48.140;11.588;2022-09-27T02:20:40;1.83;;;1.73;;
42420;SDS011;28063;48.140;11.588;2022-09-27T02:23:25;1.83;;;1.60;;
42420;SDS011;28063;48.140;11.588;2022-09-27T02:26:17;3.00;;;1.60;;
42420;SDS011;28063;48.140;11.588;2022-09-27T02:28:58;1.90;;;1.45;;
42420;SDS011;28063;48.140;11.588;2022-09-27T02:31:27;1.33;;;1.23;;
42420;SDS011;28063;48.140;11.588;2022-09-27T02:33:55;3.78;;;1.77;;
42420;SDS011;28063;48.140;11.588;2022-09-27T02:36:28;2.83;;;1.90;;
42420;SDS011;28063;48.140;11.588;2022-09-27T02:38:54;2.53;;;1.60;;
42420;SDS011;28063;48.140;11.588;2022-09-27T02:41:21;2.25;;;1.40;;
42420;SDS011;28063;48.140;11.588;2022-09-27T02:43:48;1.85;;;1.67;;
42420;SDS011;28063;48.140;11.588;2022-09-27T02:55:02;1.80;;;1.60;;
42420;SDS011;28063;48.140;11.588;2022-09-27T02:57:47;3.70;;;1.98;;
42420;SDS011;28063;48.140;11.588;2022-09-27T03:00:23;1.42;;;1.33;;
42420;SDS011;28063;48.140;11.588;2022-09-27T03:06:31;1.25;;;1.10;;
42420;SDS011;28063;48.140;11.588;2022-09-27T03:08:58;2.38;;;1.50;;
42420;SDS011;28063;48.140;11.588;2022-09-27T03:11:23;1.75;;;1.50;;
42420;SDS011;28063;48.140;11.588;2022-09-27T03:13:49;1.98;;;1.40;;
42420;SDS011;28063;48.140;11.588;2022-09-27T03:16:15;2.47;;;1.60;;
42420;SDS011;28063;48.140;11.588;2022-09-27T03:18:41;2.10;;;1.90;;
42420;SDS011;28063;48.140;11.588;2022-09-27T03:21:07;1.65;;;1.55;;
42420;SDS011;28063;48.140;11.588;2022-09-27T03:23:33;2.47;;;1.85;;
42420;SDS011;28063;48.140;11.588;2022-09-27T03:25:58;1.80;;;1.70;;
42420;SDS011;28063;48.140;11.588;2022-09-27T03:28:24;2.38;;;2.08;;
42420;SDS011;28063;48.140;11.588;2022-09-27T03:30:50;1.65;;;1.55;;
42420;SDS011;28063;48.140;11.588;2022-09-27T03:33:16;1.85;;;1.70;;
42420;SDS011;28063;48.140;11.588;2022-09-27T03:35:42;1.92;;;1.55;;
42420;SDS011;28063;48.140;11.588;2022-09-27T03:38:08;2.75;;;1.70;;
42420;SDS011;28063;48.140;11.588;2022-09-27T03:40:34;1.67;;;1.58;;
42420;SDS011;28063;48.140;11.588;2022-09-27T03:43:00;1.77;;;1.58;;
42420;SDS011;28063;48.140;11.588;2022-09-27T03:45:26;3.85;;;1.65;;
42420;SDS011;28063;48.140;11.588;2022-09-27T03:47:52;2.75;;;1.50;;
42420;SDS011;28063;48.140;11.588;2022-09-27T03:50:18;1.70;;;1.60;;
42420;SDS011;28063;48.140;11.588;2022-09-27T03:52:44;2.58;;;1.45;;
42420;SDS011;28063;48.140;11.588;2022-09-27T03:55:10;1.90;;;1.40;;
42420;SDS011;28063;48.140;11.588;2022-09-27T03:57:36;3.20;;;1.48;;
42420;SDS011;28063;48.140;11.588;2022-09-27T04:00:03;2.78;;;1.30;;
42420;SDS011;28063;48.140;11.588;2022-09-27T04:02:29;2.28;;;1.50;;
42420;SDS011;28063;48.140;11.588;2022-09-27T04:04:55;1.77;;;1.40;;
42420;SDS011;28063;48.140;11.588;2022-09-27T04:07:20;1.70;;;1.30;;
42420;SDS011;28063;48.140;11.588;2022-09-27T04:09:47;3.55;;;1.75;;
42420;SDS011;28063;48.140;11.588;2022-09-27T04:12:13;4.40;;;2.17;;
42420;SDS011;28063;48.140;11.588;2022-09-27T04:14:39;4.32;;;2.25;;
42420;SDS011;28063;48.140;11.588;2022-09-27T04:17:05;5.38;;;1.98;;
42420;SDS011;28063;48.140;11.588;2022-09-27T04:19:31;3.28;;;2.03;;
42420;SDS011;28063;48.140;11.588;2022-09-27T04:21:57;1.40;;;1.30;;
42420;SDS011;28063;48.140;11.588;2022-09-27T04:24:22;3.20;;;1.73;;
42420;SDS011;28063;48.140;11.588;2022-09-27T04:26:49;3.25;;;1.75;;
42420;SDS011;28063;48.140;11.588;2022-09-27T04:29:15;1.90;;;1.80;;
42420;SDS011;28063;48.140;11.588;2022-09-27T04:31:41;1.73;;;1.52;;
42420;SDS011;28063;48.140;11.588;2022-09-27T04:34:08;2.22;;;1.73;;
42420;SDS011;28063;48.140;11.588;2022-09-27T04:36:34;4.35;;;1.67;;
42420;SDS011;28063;48.140;11.588;2022-09-27T04:39:01;2.10;;;1.80;;
42420;SDS011;28063;48.140;11.588;2022-09-27T04:41:28;1.98;;;1.52;;
42420;SDS011;28063;48.140;11.588;2022-09-27T04:43:55;2.15;;;1.92;;
42420;SDS011;28063;48.140;11.588;2022-09-27T04:46:21;2.95;;;1.52;;
42420;SDS011;28063;48.140;11.588;2022-09-27T04:48:48;2.00;;;1.73;;
42420;SDS011;28063;48.140;11.588;2022-09-27T04:51:14;2.00;;;1.80;;
42420;SDS011;28063;48.140;11.588;2022-09-27T04:53:44;3.20;;;1.73;;
42420;SDS011;28063;48.140;11.588;2022-09-27T04:56:11;2.00;;;1.60;;
42420;SDS011;28063;48.140;11.588;2022-09-27T04:58:37;1.75;;;1.60;;
42420;SDS011;28063;48.140;11.588;2022-09-27T05:01:03;3.85;;;1.70;;
42420;SDS011;28063;48.140;11.588;2022-09-27T05:03:30;5.57;;;1.70;;
42420;SDS011;28063;48.140;11.588;2022-09-27T05:05:56;3.10;;;1.83;;
42420;SDS011;28063;48.140;11.588;2022-09-27T05:08:22;2.33;;;1.80;;
42420;SDS011;28063;48.140;11.588;2022-09-27T05:10:48;4.53;;;1.63;;
42420;SDS011;28063;48.140;11.588;2022-09-27T05:13:14;1.77;;;1.67;;
42420;SDS011;28063;48.140;11.588;2022-09-27T05:15:40;2.22;;;1.67;;
42420;SDS011;28063;48.140;11.588;2022-09-27T05:18:06;3.72;;;1.92;;
42420;SDS011;28063;48.140;11.588;2022-09-27T05:20:34;3.10;;;1.73;;
42420;SDS011;28063;48.140;11.588;2022-09-27T05:23:00;2.10;;;1.90;;
42420;SDS011;28063;48.140;11.588;2022-09-27T05:25:28;2.75;;;1.40;;
42420;SDS011;28063;48.140;11.588;2022-09-27T05:27:55;1.90;;;1.60;;
42420;SDS011;28063;48.140;11.588;2022-09-27T05:30:22;1.88;;;1.05;;
42420;SDS011;28063;48.140;11.588;2022-09-27T05:32:48;1.10;;;1.00;;
42420;SDS011;28063;48.140;11.588;2022-09-27T05:35:14;0.70;;;0.70;;
42420;SDS011;28063;48.140;11.588;2022-09-27T05:37:42;1.70;;;1.15;;
42420;SDS011;28063;48.140;11.588;2022-09-27T05:40:08;0.80;;;0.80;;
42420;SDS011;28063;48.140;11.588;2022-09-27T05:42:33;2.13;;;0.88;;
42420;SDS011;28063;48.140;11.588;2022-09-27T05:45:03;2.08;;;1.05;;
42420;SDS011;28063;48.140;11.588;2022-09-27T05:47:31;4.97;;;1.25;;
42420;SDS011;28063;48.140;11.588;2022-09-27T05:49:56;2.00;;;1.10;;
42420;SDS011;28063;48.140;11.588;2022-09-27T05:52:22;1.40;;;0.93;;
42420;SDS011;28063;48.140;11.588;2022-09-27T05:54:47;4.13;;;1.17;;
42420;SDS011;28063;48.140;11.588;2022-09-27T05:57:13;3.20;;;0.98;;
42420;SDS011;28063;48.140;11.588;2022-09-27T05:59:39;1.05;;;0.55;;
42420;SDS011;28063;48.140;11.588;2022-09-27T06:02:05;1.95;;;0.75;;
42420;SDS011;28063;48.140;11.588;2022-09-27T06:04:31;0.50;;;0.50;;
42420;SDS011;28063;48.140;11.588;2022-09-27T06:06:57;0.57;;;0.57;;
42420;SDS011;28063;48.140;11.588;2022-09-27T06:09:23;2.15;;;0.90;;
42420;SDS011;28063;48.140;11.588;2022-09-27T06:11:51;1.40;;;0.93;;
42420;SDS011;28063;48.140;11.588;2022-09-27T06:14:17;1.35;;;0.70;;
42420;SDS011;28063;48.140;11.588;2022-09-27T06:16:43;0.85;;;0.57;;
42420;SDS011;28063;48.140;11.588;2022-09-27T06:19:09;2.75;;;0.82;;
42420;SDS011;28063;48.140;11.588;2022-09-27T06:21:35;1.33;;;0.70;;
42420;SDS011;28063;48.140;11.588;2022-09-27T06:24:01;0.80;;;0.40;;
42420;SDS011;28063;48.140;11.588;2022-09-27T06:26:27;1.88;;;0.70;;
42420;SDS011;28063;48.140;11.588;2022-09-27T06:28:53;3.78;;;1.10;;
42420;SDS011;28063;48.140;11.588;2022-09-27T06:31:19;2.88;;;0.70;;
42420;SDS011;28063;48.140;11.588;2022-09-27T06:33:45;1.75;;;0.70;;
42420;SDS011;28063;48.140;11.588;2022-09-27T06:36:12;1.17;;;0.60;;
42420;SDS011;28063;48.140;11.588;2022-09-27T06:38:38;0.98;;;0.50;;
42420;SDS011;28063;48.140;11.588;2022-09-27T06:41:04;1.40;;;0.50;;
42420;SDS011;28063;48.140;11.588;2022-09-27T06:43:30;0.65;;;0.40;;
42420;SDS011;28063;48.140;11.588;2022-09-27T06:46:00;0.75;;;0.60;;
42420;SDS011;28063;48.140;11.588;2022-09-27T06:48:30;3.35;;;0.63;;
42420;SDS011;28063;48.140;11.588;2022-09-27T06:50:56;4.55;;;0.77;;
42420;SDS011;28063;48.140;11.588;2022-09-27T06:53:22;3.03;;;0.68;;
42420;SDS011;28063;48.140;11.588;2022-09-27T06:55:49;2.22;;;1.23;;
42420;SDS011;28063;48.140;11.588;2022-09-27T06:58:15;2.28;;;0.65;;
42420;SDS011;28063;48.140;11.588;2022-09-27T07:01:00;1.50;;;0.80;;
42420;SDS011;28063;48.140;11.588;2022-09-27T07:03:27;1.27;;;0.73;;
42420;SDS011;28063;48.140;11.588;2022-09-27T07:05:58;1.75;;;0.60;;
42420;SDS011;28063;48.140;11.588;2022-09-27T07:08:29;4.38;;;1.15;;
42420;SDS011;28063;48.140;11.588;2022-09-27T07:10:55;1.85;;;0.98;;
42420;SDS011;28063;48.140;11.588;2022-09-27T07:13:26;2.05;;;0.73;;
42420;SDS011;28063;48.140;11.588;2022-09-27T07:15:55;1.95;;;0.80;;
42420;SDS011;28063;48.140;11.588;2022-09-27T07:18:21;2.33;;;1.00;;
42420;SDS011;28063;48.140;11.588;2022-09-27T07:20:47;3.20;;;1.10;;
42420;SDS011;28063;48.140;11.588;2022-09-27T07:23:14;1.08;;;0.82;;
42420;SDS011;28063;48.140;11.588;2022-09-27T07:25:40;3.80;;;1.25;;
42420;SDS011;28063;48.140;11.588;2022-09-27T07:28:07;4.80;;;0.98;;
42420;SDS011;28063;48.140;11.588;2022-09-27T07:30:38;2.67;;;0.98;;
42420;SDS011;28063;48.140;11.588;2022-09-27T07:33:06;1.50;;;0.70;;
42420;SDS011;28063;48.140;11.588;2022-09-27T07:35:32;5.65;;;1.15;;
42420;SDS011;28063;48.140;11.588;2022-09-27T07:38:00;3.60;;;0.57;;
42420;SDS011;28063;48.140;11.588;2022-09-27T07:40:27;1.45;;;0.85;;
42420;SDS011;28063;48.140;11.588;2022-09-27T07:42:56;5.72;;;0.93;;
42420;SDS011;28063;48.140;11.588;2022-09-27T07:45:23;2.20;;;1.00;;
42420;SDS011;28063;48.140;11.588;2022-09-27T07:47:49;1.90;;;0.60;;
42420;SDS011;28063;48.140;11.588;2022-09-27T07:50:15;2.67;;;0.70;;
42420;SDS011;28063;48.140;11.588;2022-09-27T07:52:42;1.88;;;0.60;;
42420;SDS011;28063;48.140;11.588;2022-09-27T07:55:10;2.33;;;0.77;;
42420;SDS011;28063;48.140;11.588;2022-09-27T07:57:37;0.55;;;0.43;;
42420;SDS011;28063;48.140;11.588;2022-09-27T08:00:03;0.85;;;0.50;;
42420;SDS011;28063;48.140;11.588;2022-09-27T08:02:31;0.95;;;0.45;;
42420;SDS011;28063;48.140;11.588;2022-09-27T08:04:58;1.15;;;0.52;;
42420;SDS011;28063;48.140;11.588;2022-09-27T08:07:24;1.23;;;0.47;;
42420;SDS011;28063;48.140;11.588;2022-09-27T08:09:50;4.60;;;0.85;;
42420;SDS011;28063;48.140;11.588;2022-09-27T08:12:16;0.85;;;0.40;;
42420;SDS011;28063;48.140;11.588;2022-09-27T08:14:45;1.55;;;0.57;;
42420;SDS011;28063;48.140;11.588;2022-09-27T08:17:11;2.20;;;0.45;;
42420;SDS011;28063;48.140;11.588;2022-09-27T08:19:37;0.63;;;0.30;;
42420;SDS011;28063;48.140;11.588;2022-09-27T08:22:03;2.97;;;0.40;;
42420;SDS011;28063;48.140;11.588;2022-09-27T08:26:57;0.65;;;0.30;;
42420;SDS011;28063;48.140;11.588;2022-09-27T08:29:24;2.30;;;0.52;;
42420;SDS011;28063;48.140;11.588;2022-09-27T08:31:50;0.40;;;0.40;;
42420;SDS011;28063;48.140;11.588;2022-09-27T08:34:16;1.38;;;0.45;;
42420;SDS011;28063;48.140;11.588;2022-09-27T08:36:42;0.60;;;0.28;;
42420;SDS011;28063;48.140;11.588;2022-09-27T08:39:08;3.00;;;0.35;;
42420;SDS011;28063;48.140;11.588;2022-09-27T08:41:35;1.45;;;0.70;;
42420;SDS011;28063;48.140;11.588;2022-09-27T08:47:11;1.45;;;0.50;;
42420;SDS011;28063;48.140;11.588;2022-09-27T08:49:50;2.20;;;0.93;;
42420;SDS011;28063;48.140;11.588;2022-09-27T08:52:22;3.85;;;0.65;;
42420;SDS011;28063;48.140;11.588;2022-09-27T08:54:54;0.88;;;0.60;;
42420;SDS011;28063;48.140;11.588;2022-09-27T08:57:23;1.38;;;0.63;;
42420;SDS011;28063;48.140;11.588;2022-09-27T09:00:07;2.97;;;0.50;;
42420;SDS011;28063;48.140;11.588;2022-09-27T09:02:35;1.40;;;0.50;;
42420;SDS011;28063;48.140;11.588;2022-09-27T09:05:13;0.93;;;0.60;;
42420;SDS011;28063;48.140;11.588;2022-09-27T09:14:48;2.95;;;0.50;;
42420;SDS011;28063;48.140;11.588;2022-09-27T09:20:17;1.48;;;0.75;;
42420;SDS011;28063;48.140;11.588;2022-09-27T09:33:29;0.45;;;0.43;;
42420;SDS011;28063;48.140;11.588;2022-09-27T09:39:23;1.77;;;0.60;;
42420;SDS011;28063;48.140;11.588;2022-09-27T09:42:19;1.70;;;0.70;;
42420;SDS011;28063;48.140;11.588;2022-09-27T09:45:02;2.05;;;0.70;;
42420;SDS011;28063;48.140;11.588;2022-09-27T09:50:35;1.75;;;0.50;;
42420;SDS011;28063;48.140;11.588;2022-09-27T09:53:22;6.43;;;0.60;;
42420;SDS011;28063;48.140;11.588;2022-09-27T09:56:13;1.15;;;0.40;;
42420;SDS011;28063;48.140;11.588;2022-09-27T09:58:53;0.95;;;0.60;;
42420;SDS011;28063;48.140;11.588;2022-09-27T10:03:52;1.40;;;0.70;;
42420;SDS011;28063;48.140;11.588;2022-09-27T10:06:20;0.45;;;0.45;;
42420;SDS011;28063;48.140;11.588;2022-09-27T10:08:47;0.98;;;0.40;;
42420;SDS011;28063;48.140;11.588;2022-09-27T10:14:09;1.17;;;0.50;;
42420;SDS011;28063;48.140;11.588;2022-09-27T10:16:43;3.00;;;0.57;;
42420;SDS011;28063;48.140;11.588;2022-09-27T10:19:12;0.80;;;0.55;;
42420;SDS011;28063;48.140;11.588;2022-09-27T10:21:41;1.30;;;0.60;;
42420;SDS011;28063;48.140;11.588;2022-09-27T10:24:10;1.45;;;0.40;;
42420;SDS011;28063;48.140;11.588;2022-09-27T10:26:38;1.05;;;0.60;;
42420;SDS011;28063;48.140;11.588;2022-09-27T10:32:03;1.08;;;0.50;;
42420;SDS011;28063;48.140;11.588;2022-09-27T10:34:42;5.03;;;0.90;;
42420;SDS011;28063;48.140;11.588;2022-09-27T10:39:37;1.35;;;0.63;;
42420;SDS011;28063;48.140;11.588;2022-09-27T10:47:55;0.73;;;0.65;;
42420;SDS011;28063;48.140;11.588;2022-09-27T10:50:26;1.73;;;0.65;;
42420;SDS011;28063;48.140;11.588;2022-09-27T10:55:55;2.05;;;0.95;;
42420;SDS011;28063;48.140;11.588;2022-09-27T11:00:54;1.15;;;0.80;;
42420;SDS011;28063;48.140;11.588;2022-09-27T11:03:26;1.27;;;0.88;;
42420;SDS011;28063;48.140;11.588;2022-09-27T11:05:56;2.78;;;1.25;;
42420;SDS011;28063;48.140;11.588;2022-09-27T11:13:59;2.05;;;0.68;;
42420;SDS011;28063;48.140;11.588;2022-09-27T11:30:28;0.57;;;0.50;;
42420;SDS011;28063;48.140;11.588;2022-09-27T11:33:14;1.55;;;0.60;;
42420;SDS011;28063;48.140;11.588;2022-09-27T11:36:04;1.33;;;0.65;;
42420;SDS011;28063;48.140;11.588;2022-09-27T12:07:35;0.65;;;0.47;;
42420;SDS011;28063;48.140;11.588;2022-09-27T12:10:07;2.47;;;0.50;;
42420;SDS011;28063;48.140;11.588;2022-09-27T12:12:38;2.15;;;0.28;;
42420;SDS011;28063;48.140;11.588;2022-09-27T12:15:27;2.13;;;0.50;;
42420;SDS011;28063;48.140;11.588;2022-09-27T12:18:43;0.68;;;0.45;;
42420;SDS011;28063;48.140;11.588;2022-09-27T12:20:50;1.20;;;0.65;;
42420;SDS011;28063;48.140;11.588;2022-09-27T12:23:17;0.50;;;0.40;;
42420;SDS011;28063;48.140;11.588;2022-09-27T12:25:57;0.70;;;0.30;;
42420;SDS011;28063;48.140;11.588;2022-09-27T12:28:38;2.15;;;0.60;;
42420;SDS011;28063;48.140;11.588;2022-09-27T12:31:29;1.83;;;0.40;;
42420;SDS011;28063;48.140;11.588;2022-09-27T12:34:18;3.90;;;0.70;;
42420;SDS011;28063;48.140;11.588;2022-09-27T12:37:04;1.20;;;0.60;;
42420;SDS011;28063;48.140;11.588;2022-09-27T12:39:52;3.83;;;0.50;;
42420;SDS011;28063;48.140;11.588;2022-09-27T12:42:44;0.50;;;0.50;;
42420;SDS011;28063;48.140;11.588;2022-09-27T12:45:16;0.60;;;0.60;;
42420;SDS011;28063;48.140;11.588;2022-09-27T12:48:11;2.08;;;0.50;;
42420;SDS011;28063;48.140;11.588;2022-09-27T12:50:54;0.80;;;0.40;;
42420;SDS011;28063;48.140;11.588;2022-09-27T12:53:44;1.27;;;0.70;;
42420;SDS011;28063;48.140;11.588;2022-09-27T12:56:22;1.08;;;0.68;;
42420;SDS011;28063;48.140;11.588;2022-09-27T13:01:41;0.57;;;0.50;;
42420;SDS011;28063;48.140;11.588;2022-09-27T13:07:07;0.50;;;0.40;;
42420;SDS011;28063;48.140;11.588;2022-09-27T13:12:36;1.40;;;0.68;;
42420;SDS011;28063;48.140;11.588;2022-09-27T13:17:54;0.50;;;0.45;;
42420;SDS011;28063;48.140;11.588;2022-09-27T13:22:59;2.13;;;0.70;;
42420;SDS011;28063;48.140;11.588;2022-09-27T13:28:35;2.05;;;0.93;;
42420;SDS011;28063;48.140;11.588;2022-09-27T13:31:13;2.70;;;0.57;;
42420;SDS011;28063;48.140;11.588;2022-09-27T13:33:46;1.55;;;0.68;;
42420;SDS011;28063;48.140;11.588;2022-09-27T13:44:32;1.27;;;0.75;;
42420;SDS011;28063;48.140;11.588;2022-09-27T13:50:17;1.65;;;1.00;;
42420;SDS011;28063;48.140;11.588;2022-09-27T14:00:40;0.50;;;0.43;;
42420;SDS011;28063;48.140;11.588;2022-09-27T14:03:21;2.58;;;0.77;;
42420;SDS011;28063;48.140;11.588;2022-09-27T14:06:00;1.10;;;0.57;;
42420;SDS011;28063;48.140;11.588;2022-09-27T14:11:03;1.63;;;0.75;;
42420;SDS011;28063;48.140;11.588;2022-09-27T14:13:36;0.70;;;0.50;;
42420;SDS011;28063;48.140;11.588;2022-09-27T14:16:03;0.90;;;0.40;;
42420;SDS011;28063;48.140;11.588;2022-09-27T14:18:30;1.35;;;0.50;;
42420;SDS011;28063;48.140;11.588;2022-09-27T14:21:58;2.97;;;0.88;;
42420;SDS011;28063;48.140;11.588;2022-09-27T14:26:45;1.42;;;0.30;;
42420;SDS011;28063;48.140;11.588;2022-09-27T14:29:18;1.98;;;0.28;;
42420;SDS011;28063;48.140;11.588;2022-09-27T14:31:46;0.47;;;0.47;;
42420;SDS011;28063;48.140;11.588;2022-09-27T14:34:13;0.38;;;0.30;;
42420;SDS011;28063;48.140;11.588;2022-09-27T14:36:39;1.35;;;0.60;;
42420;SDS011;28063;48.140;11.588;2022-09-27T14:39:28;2.35;;;0.40;;
42420;SDS011;28063;48.140;11.588;2022-09-27T14:41:57;2.38;;;0.40;;
42420;SDS011;28063;48.140;11.588;2022-09-27T14:44:27;0.63;;;0.30;;
42420;SDS011;28063;48.140;11.588;2022-09-27T14:47:16;2.13;;;0.65;;
42420;SDS011;28063;48.140;11.588;2022-09-27T14:49:47;0.68;;;0.40;;
42420;SDS011;28063;48.140;11.588;2022-09-27T14:52:18;1.45;;;0.40;;
42420;SDS011;28063;48.140;11.588;2022-09-27T14:54:54;3.05;;;0.70;;
42420;SDS011;28063;48.140;11.588;2022-09-27T14:57:24;0.68;;;0.40;;
42420;SDS011;28063;48.140;11.588;2022-09-27T14:59:52;3.30;;;0.50;;
42420;SDS011;28063;48.140;11.588;2022-09-27T15:02:18;2.03;;;0.47;;
42420;SDS011;28063;48.140;11.588;2022-09-27T15:04:48;1.17;;;0.70;;
42420;SDS011;28063;48.140;11.588;2022-09-27T15:07:15;0.80;;;0.40;;
42420;SDS011;28063;48.140;11.588;2022-09-27T15:09:43;0.98;;;0.40;;
42420;SDS011;28063;48.140;11.588;2022-09-27T15:12:11;1.02;;;0.50;;
42420;SDS011;28063;48.140;11.588;2022-09-27T15:14:40;0.52;;;0.40;;
42420;SDS011;28063;48.140;11.588;2022-09-27T15:17:15;1.15;;;0.52;;
42420;SDS011;28063;48.140;11.588;2022-09-27T15:20:18;1.38;;;0.68;;
42420;SDS011;28063;48.140;11.588;2022-09-27T15:22:44;1.42;;;0.47;;
42420;SDS011;28063;48.140;11.588;2022-09-27T15:25:16;1.70;;;0.52;;
42420;SDS011;28063;48.140;11.588;2022-09-27T15:27:51;1.33;;;0.57;;
42420;SDS011;28063;48.140;11.588;2022-09-27T15:30:20;3.13;;;0.75;;
42420;SDS011;28063;48.140;11.588;2022-09-27T15:32:53;1.33;;;0.60;;
42420;SDS011;28063;48.140;11.588;2022-09-27T15:35:55;1.70;;;0.90;;
42420;SDS011;28063;48.140;11.588;2022-09-27T15:40:59;1.15;;;0.60;;
42420;SDS011;28063;48.140;11.588;2022-09-27T15:48:39;2.33;;;0.77;;
42420;SDS011;28063;48.140;11.588;2022-09-27T15:51:36;2.38;;;0.82;;
42420;SDS011;28063;48.140;11.588;2022-09-27T15:54:04;2.63;;;0.70;;
42420;SDS011;28063;48.140;11.588;2022-09-27T15:56:29;3.83;;;0.65;;
42420;SDS011;28063;48.140;11.588;2022-09-27T15:59:01;1.63;;;0.50;;
42420;SDS011;28063;48.140;11.588;2022-09-27T16:01:27;2.75;;;0.80;;
42420;SDS011;28063;48.140;11.588;2022-09-27T16:03:53;1.23;;;0.80;;
42420;SDS011;28063;48.140;11.588;2022-09-27T16:06:19;1.15;;;0.70;;
42420;SDS011;28063;48.140;11.588;2022-09-27T16:08:49;24.55;;;10.98;;
42420;SDS011;28063;48.140;11.588;2022-09-27T16:11:15;6.82;;;5.47;;
42420;SDS011;28063;48.140;11.588;2022-09-27T16:13:41;3.10;;;1.67;;
42420;SDS011;28063;48.140;11.588;2022-09-27T16:16:14;2.25;;;1.92;;
42420;SDS011;28063;48.140;11.588;2022-09-27T16:18:42;14.55;;;10.30;;
42420;SDS011;28063;48.140;11.588;2022-09-27T16:21:08;19.35;;;16.92;;
42420;SDS011;28063;48.140;11.588;2022-09-27T16:23:34;8.00;;;7.20;;
42420;SDS011;28063;48.140;11.588;2022-09-27T16:26:00;10.88;;;8.48;;
42420;SDS011;28063;48.140;11.588;2022-09-27T16:28:28;5.35;;;3.83;;
42420;SDS011;28063;48.140;11.588;2022-09-27T16:31:05;1.48;;;0.93;;
42420;SDS011;28063;48.140;11.588;2022-09-27T16:33:43;3.10;;;1.45;;
42420;SDS011;28063;48.140;11.588;2022-09-27T16:36:14;2.38;;;1.27;;
42420;SDS011;28063;48.140;11.588;2022-09-27T16:38:46;2.97;;;1.02;;
42420;SDS011;28063;48.140;11.588;2022-09-27T16:41:13;2.72;;;1.40;;
42420;SDS011;28063;48.140;11.588;2022-09-27T16:43:38;1.60;;;1.00;;
42420;SDS011;28063;48.140;11.588;2022-09-27T16:46:07;2.47;;;0.98;;
42420;SDS011;28063;48.140;11.588;2022-09-27T16:48:35;1.52;;;0.80;;
42420;SDS011;28063;48.140;11.588;2022-09-27T16:51:06;1.45;;;1.00;;
42420;SDS011;28063;48.140;11.588;2022-09-27T16:53:54;1.10;;;0.80;;
42420;SDS011;28063;48.140;11.588;2022-09-27T16:56:20;2.50;;;0.90;;
42420;SDS011;28063;48.140;11.588;2022-09-27T16:58:46;1.00;;;0.73;;
42420;SDS011;28063;48.140;11.588;2022-09-27T17:01:12;1.35;;;0.77;;
42420;SDS011;28063;48.140;11.588;2022-09-27T17:03:40;1.85;;;0.80;;
42420;SDS011;28063;48.140;11.588;2022-09-27T17:06:05;2.20;;;1.00;;
42420;SDS011;28063;48.140;11.588;2022-09-27T17:08:31;0.80;;;0.70;;
42420;SDS011;28063;48.140;11.588;2022-09-27T17:10:57;3.42;;;2.83;;
42420;SDS011;28063;48.140;11.588;2022-09-27T17:13:24;2.28;;;1.50;;
42420;SDS011;28063;48.140;11.588;2022-09-27T17:15:49;4.22;;;2.10;;
42420;SDS011;28063;48.140;11.588;2022-09-27T17:18:15;2.88;;;2.05;;
42420;SDS011;28063;48.140;11.588;2022-09-27T17:20:41;3.42;;;1.98;;
42420;SDS011;28063;48.140;11.588;2022-09-27T17:23:08;2.65;;;1.30;;
42420;SDS011;28063;48.140;11.588;2022-09-27T17:25:33;1.95;;;0.80;;
42420;SDS011;28063;48.140;11.588;2022-09-27T17:27:59;4.13;;;1.13;;
42420;SDS011;28063;48.140;11.588;2022-09-27T17:30:25;1.33;;;1.10;;
42420;SDS011;28063;48.140;11.588;2022-09-27T17:32:50;3.40;;;1.02;;
42420;SDS011;28063;48.140;11.588;2022-09-27T17:35:16;1.95;;;0.90;;
42420;SDS011;28063;48.140;11.588;2022-09-27T17:37:42;4.68;;;0.75;;
42420;SDS011;28063;48.140;11.588;2022-09-27T17:40:08;1.42;;;0.80;;
42420;SDS011;28063;48.140;11.588;2022-09-27T17:42:34;3.67;;;1.50;;
42420;SDS011;28063;48.140;11.588;2022-09-27T17:45:01;3.30;;;1.17;;
42420;SDS011;28063;48.140;11.588;2022-09-27T17:47:27;2.58;;;1.60;;
42420;SDS011;28063;48.140;11.588;2022-09-27T17:50:11;2.53;;;1.27;;
42420;SDS011;28063;48.140;11.588;2022-09-27T17:52:49;1.75;;;1.20;;
42420;SDS011;28063;48.140;11.588;2022-09-27T17:55:15;1.88;;;1.10;;
42420;SDS011;28063;48.140;11.588;2022-09-27T17:57:41;0.80;;;0.80;;
42420;SDS011;28063;48.140;11.588;2022-09-27T18:00:07;2.35;;;1.17;;
42420;SDS011;28063;48.140;11.588;2022-09-27T18:02:33;1.80;;;0.90;;
42420;SDS011;28063;48.140;11.588;2022-09-27T18:04:58;1.25;;;1.13;;
42420;SDS011;28063;48.140;11.588;2022-09-27T18:07:24;2.58;;;1.67;;
42420;SDS011;28063;48.140;11.588;2022-09-27T18:09:50;3.65;;;1.50;;
42420;SDS011;28063;48.140;11.588;2022-09-27T18:12:15;3.05;;;1.45;;
42420;SDS011;28063;48.140;11.588;2022-09-27T18:14:41;1.50;;;0.90;;